sensor_id;sensor_type;location;lat;lon;timestamp;pressure;altitude;pressure_sealevel;temperature;humidity
7309;BME280;3695;53.330;9.876;2024-02-21T00:02:04;100914.72;;;12.37;nan
7309;BME280;3695;53.330;9.876;2024-02-21T00:04:31;100904.69;;;12.19;nan
7309;BME280;3695;53.330;9.876;2024-02-21T00:06:58;100899.56;;;12.25;nan
7309;BME280;3695;53.330;9.876;2024-02-21T00:09:27;100904.84;;;12.27;nan
7309;BME280;3695;53.330;9.876;2024-02-21T00:11:53;100902.09;;;12.20;nan
7309;BME280;3695;53.330;9.876;2024-02-21T00:14:20;100901.94;;;12.11;nan
7309;BME280;3695;53.330;9.876;2024-02-21T00:16:47;100894.81;;;12.07;nan
7309;BME280;3695;53.330;9.876;2024-02-21T00:19:13;100883.22;;;11.98;nan
7309;BME280;3695;53.330;9.876;2024-02-21T00:21:41;100895.06;;;12.19;nan
7309;BME280;3695;53.330;9.876;2024-02-21T00:24:07;100886.06;;;12.08;nan
7309;BME280;3695;53.330;9.876;2024-02-21T00:26:35;100894.16;;;12.19;nan
7309;BME280;3695;53.330;9.876;2024-02-21T00:29:02;100887.00;;;12.12;nan
7309;BME280;3695;53.330;9.876;2024-02-21T00:31:28;100887.97;;;12.15;nan
7309;BME280;3695;53.330;9.876;2024-02-21T00:33:55;100866.84;;;12.14;nan
7309;BME280;3695;53.330;9.876;2024-02-21T00:36:21;100878.47;;;12.25;nan
7309;BME280;3695;53.330;9.876;2024-02-21T00:38:48;100862.00;;;12.37;nan
7309;BME280;3695;53.330;9.876;2024-02-21T00:41:14;100862.31;;;12.07;nan
7309;BME280;3695;53.330;9.876;2024-02-21T00:43:42;100860.66;;;12.12;nan
7309;BME280;3695;53.330;9.876;2024-02-21T00:46:09;100862.47;;;12.14;nan
7309;BME280;3695;53.330;9.876;2024-02-21T00:48:35;100855.41;;;12.13;nan
7309;BME280;3695;53.330;9.876;2024-02-21T00:51:02;100858.00;;;12.10;nan
7309;BME280;3695;53.330;9.876;2024-02-21T00:53:29;100851.31;;;12.28;nan
7309;BME280;3695;53.330;9.876;2024-02-21T00:55:56;100858.31;;;12.27;nan
7309;BME280;3695;53.330;9.876;2024-02-21T00:58:23;100853.91;;;12.26;nan
7309;BME280;3695;53.330;9.876;2024-02-21T01:00:51;100840.66;;;12.21;nan
7309;BME280;3695;53.330;9.876;2024-02-21T01:03:18;100858.16;;;12.19;nan
7309;BME280;3695;53.330;9.876;2024-02-21T01:05:45;100855.44;;;12.15;nan
7309;BME280;3695;53.330;9.876;2024-02-21T01:08:11;100835.31;;;12.18;nan
7309;BME280;3695;53.330;9.876;2024-02-21T01:10:38;100838.88;;;12.20;nan
7309;BME280;3695;53.330;9.876;2024-02-21T01:13:05;100838.34;;;12.40;nan
7309;BME280;3695;53.330;9.876;2024-02-21T01:15:32;100827.84;;;12.41;nan
7309;BME280;3695;53.330;9.876;2024-02-21T01:18:00;100829.47;;;12.36;nan
7309;BME280;3695;53.330;9.876;2024-02-21T01:20:26;100825.00;;;12.31;nan
7309;BME280;3695;53.330;9.876;2024-02-21T01:22:53;100816.22;;;12.32;nan
7309;BME280;3695;53.330;9.876;2024-02-21T01:25:20;100809.06;;;12.24;nan
7309;BME280;3695;53.330;9.876;2024-02-21T01:27:46;100813.63;;;12.33;nan
7309;BME280;3695;53.330;9.876;2024-02-21T01:30:12;100812.88;;;12.40;nan
7309;BME280;3695;53.330;9.876;2024-02-21T01:32:39;100812.03;;;12.41;nan
7309;BME280;3695;53.330;9.876;2024-02-21T01:35:08;100822.25;;;12.24;nan
7309;BME280;3695;53.330;9.876;2024-02-21T01:37:34;100821.16;;;12.13;nan
7309;BME280;3695;53.330;9.876;2024-02-21T01:40:01;100808.13;;;12.21;nan
7309;BME280;3695;53.330;9.876;2024-02-21T01:42:29;100812.53;;;12.20;nan
7309;BME280;3695;53.330;9.876;2024-02-21T01:44:55;100809.38;;;12.43;nan
7309;BME280;3695;53.330;9.876;2024-02-21T01:47:22;100802.19;;;12.33;nan
7309;BME280;3695;53.330;9.876;2024-02-21T01:49:49;100797.72;;;12.27;nan
7309;BME280;3695;53.330;9.876;2024-02-21T01:52:17;100782.56;;;12.15;nan
7309;BME280;3695;53.330;9.876;2024-02-21T01:54:46;100790.53;;;12.18;nan
7309;BME280;3695;53.330;9.876;2024-02-21T01:57:13;100782.78;;;12.28;nan
7309;BME280;3695;53.330;9.876;2024-02-21T01:59:40;100778.25;;;12.20;nan
7309;BME280;3695;53.330;9.876;2024-02-21T02:02:06;100773.06;;;12.25;nan
7309;BME280;3695;53.330;9.876;2024-02-21T02:04:34;100768.97;;;12.41;nan
7309;BME280;3695;53.330;9.876;2024-02-21T02:07:02;100763.31;;;12.19;nan
7309;BME280;3695;53.330;9.876;2024-02-21T02:09:33;100747.28;;;12.07;nan
7309;BME280;3695;53.330;9.876;2024-02-21T02:12:01;100743.97;;;12.19;nan
7309;BME280;3695;53.330;9.876;2024-02-21T02:14:28;100728.97;;;12.13;nan
7309;BME280;3695;53.330;9.876;2024-02-21T02:16:55;100728.16;;;12.17;nan
7309;BME280;3695;53.330;9.876;2024-02-21T02:19:21;100727.44;;;12.28;nan
7309;BME280;3695;53.330;9.876;2024-02-21T02:21:51;100716.78;;;12.20;nan
7309;BME280;3695;53.330;9.876;2024-02-21T02:24:24;100701.91;;;12.22;nan
7309;BME280;3695;53.330;9.876;2024-02-21T02:26:51;100707.19;;;12.23;nan
7309;BME280;3695;53.330;9.876;2024-02-21T02:29:18;100690.47;;;12.21;nan
7309;BME280;3695;53.330;9.876;2024-02-21T02:31:44;100692.34;;;12.29;nan
7309;BME280;3695;53.330;9.876;2024-02-21T02:34:11;100690.63;;;12.32;nan
7309;BME280;3695;53.330;9.876;2024-02-21T02:36:37;100684.50;;;12.33;nan
7309;BME280;3695;53.330;9.876;2024-02-21T02:39:04;100682.44;;;12.14;nan
7309;BME280;3695;53.330;9.876;2024-02-21T02:41:34;100684.31;;;12.21;nan
7309;BME280;3695;53.330;9.876;2024-02-21T02:44:01;100665.13;;;12.30;nan
7309;BME280;3695;53.330;9.876;2024-02-21T02:46:27;100677.69;;;12.49;nan
7309;BME280;3695;53.330;9.876;2024-02-21T02:48:54;100658.25;;;12.41;nan
7309;BME280;3695;53.330;9.876;2024-02-21T02:51:20;100665.31;;;12.43;nan
7309;BME280;3695;53.330;9.876;2024-02-21T02:53:47;100652.84;;;12.32;nan
7309;BME280;3695;53.330;9.876;2024-02-21T02:56:14;100647.69;;;12.39;nan
7309;BME280;3695;53.330;9.876;2024-02-21T02:58:43;100645.00;;;12.35;nan
7309;BME280;3695;53.330;9.876;2024-02-21T03:01:10;100652.06;;;12.39;nan
7309;BME280;3695;53.330;9.876;2024-02-21T03:03:36;100651.25;;;12.43;nan
7309;BME280;3695;53.330;9.876;2024-02-21T03:06:03;100659.09;;;12.38;nan
7309;BME280;3695;53.330;9.876;2024-02-21T03:08:30;100663.34;;;12.29;nan
7309;BME280;3695;53.330;9.876;2024-02-21T03:10:57;100656.31;;;12.28;nan
7309;BME280;3695;53.330;9.876;2024-02-21T03:13:24;100669.69;;;12.43;nan
7309;BME280;3695;53.330;9.876;2024-02-21T03:15:52;100655.75;;;12.50;nan
7309;BME280;3695;53.330;9.876;2024-02-21T03:18:19;100661.78;;;12.43;nan
7309;BME280;3695;53.330;9.876;2024-02-21T03:20:45;100669.84;;;12.52;nan
7309;BME280;3695;53.330;9.876;2024-02-21T03:23:12;100660.00;;;12.42;nan
7309;BME280;3695;53.330;9.876;2024-02-21T03:25:38;100663.72;;;12.54;nan
7309;BME280;3695;53.330;9.876;2024-02-21T03:28:05;100664.50;;;12.46;nan
7309;BME280;3695;53.330;9.876;2024-02-21T03:30:31;100659.00;;;12.32;nan
7309;BME280;3695;53.330;9.876;2024-02-21T03:33:00;100668.53;;;12.22;nan
7309;BME280;3695;53.330;9.876;2024-02-21T03:35:27;100681.13;;;12.43;nan
7309;BME280;3695;53.330;9.876;2024-02-21T03:37:53;100677.56;;;12.40;nan
7309;BME280;3695;53.330;9.876;2024-02-21T03:40:20;100678.72;;;12.58;nan
7309;BME280;3695;53.330;9.876;2024-02-21T03:42:47;100673.28;;;12.46;nan
7309;BME280;3695;53.330;9.876;2024-02-21T03:45:13;100670.75;;;12.52;nan
7309;BME280;3695;53.330;9.876;2024-02-21T03:47:40;100670.66;;;12.48;nan
7309;BME280;3695;53.330;9.876;2024-02-21T03:50:08;100670.81;;;12.58;nan
7309;BME280;3695;53.330;9.876;2024-02-21T03:52:35;100674.19;;;12.50;nan
7309;BME280;3695;53.330;9.876;2024-02-21T03:55:02;100665.25;;;12.39;nan
7309;BME280;3695;53.330;9.876;2024-02-21T03:57:28;100668.09;;;12.52;nan
7309;BME280;3695;53.330;9.876;2024-02-21T03:59:55;100673.19;;;12.42;nan
7309;BME280;3695;53.330;9.876;2024-02-21T04:02:21;100665.16;;;12.33;nan
7309;BME280;3695;53.330;9.876;2024-02-21T04:04:48;100658.47;;;12.56;nan
7309;BME280;3695;53.330;9.876;2024-02-21T04:07:16;100660.88;;;12.39;nan
7309;BME280;3695;53.330;9.876;2024-02-21T04:09:42;100655.59;;;12.39;nan
7309;BME280;3695;53.330;9.876;2024-02-21T04:12:09;100654.81;;;12.48;nan
7309;BME280;3695;53.330;9.876;2024-02-21T04:14:35;100661.69;;;12.37;nan
7309;BME280;3695;53.330;9.876;2024-02-21T04:17:02;100654.75;;;12.42;nan
7309;BME280;3695;53.330;9.876;2024-02-21T04:19:30;100652.66;;;12.19;nan
7309;BME280;3695;53.330;9.876;2024-02-21T04:21:57;100652.56;;;12.13;nan
7309;BME280;3695;53.330;9.876;2024-02-21T04:24:25;100650.16;;;12.27;nan
7309;BME280;3695;53.330;9.876;2024-02-21T04:26:51;100644.97;;;12.33;nan
7309;BME280;3695;53.330;9.876;2024-02-21T04:29:18;100644.91;;;12.29;nan
7309;BME280;3695;53.330;9.876;2024-02-21T04:31:44;100636.28;;;12.42;nan
7309;BME280;3695;53.330;9.876;2024-02-21T04:34:11;100638.59;;;12.17;nan
7309;BME280;3695;53.330;9.876;2024-02-21T04:36:38;100636.03;;;12.22;nan
7309;BME280;3695;53.330;9.876;2024-02-21T04:39:04;100634.78;;;11.99;nan
7309;BME280;3695;53.330;9.876;2024-02-21T04:41:32;100634.09;;;12.12;nan
7309;BME280;3695;53.330;9.876;2024-02-21T04:43:58;100636.66;;;12.07;nan
7309;BME280;3695;53.330;9.876;2024-02-21T04:46:25;100626.22;;;12.13;nan
7309;BME280;3695;53.330;9.876;2024-02-21T04:48:51;100625.41;;;12.16;nan
7309;BME280;3695;53.330;9.876;2024-02-21T04:51:18;100620.75;;;12.01;nan
7309;BME280;3695;53.330;9.876;2024-02-21T04:53:44;100624.44;;;12.12;nan
7309;BME280;3695;53.330;9.876;2024-02-21T04:56:11;100625.16;;;12.02;nan
7309;BME280;3695;53.330;9.876;2024-02-21T04:58:39;100626.94;;;12.03;nan
7309;BME280;3695;53.330;9.876;2024-02-21T05:01:06;100623.44;;;12.03;nan
7309;BME280;3695;53.330;9.876;2024-02-21T05:03:33;100619.09;;;12.08;nan
7309;BME280;3695;53.330;9.876;2024-02-21T05:05:59;100598.88;;;12.04;nan
7309;BME280;3695;53.330;9.876;2024-02-21T05:08:26;100614.47;;;11.92;nan
7309;BME280;3695;53.330;9.876;2024-02-21T05:10:52;100612.91;;;12.04;nan
7309;BME280;3695;53.330;9.876;2024-02-21T05:13:19;100612.00;;;12.02;nan
7309;BME280;3695;53.330;9.876;2024-02-21T05:15:48;100607.59;;;12.01;nan
7309;BME280;3695;53.330;9.876;2024-02-21T05:18:14;100616.63;;;12.18;nan
7309;BME280;3695;53.330;9.876;2024-02-21T05:20:41;100612.97;;;12.09;nan
7309;BME280;3695;53.330;9.876;2024-02-21T05:23:07;100612.78;;;11.97;nan
7309;BME280;3695;53.330;9.876;2024-02-21T05:25:34;100600.72;;;12.11;nan
7309;BME280;3695;53.330;9.876;2024-02-21T05:28:00;100598.81;;;12.01;nan
7309;BME280;3695;53.330;9.876;2024-02-21T05:30:28;100605.03;;;12.04;nan
7309;BME280;3695;53.330;9.876;2024-02-21T05:32:56;100600.22;;;11.79;nan
7309;BME280;3695;53.330;9.876;2024-02-21T05:35:25;100599.69;;;12.01;nan
7309;BME280;3695;53.330;9.876;2024-02-21T05:37:52;100600.63;;;12.06;nan
7309;BME280;3695;53.330;9.876;2024-02-21T05:40:19;100591.84;;;12.04;nan
7309;BME280;3695;53.330;9.876;2024-02-21T05:42:46;100597.78;;;11.91;nan
7309;BME280;3695;53.330;9.876;2024-02-21T05:45:12;100593.63;;;12.05;nan
7309;BME280;3695;53.330;9.876;2024-02-21T05:47:40;100588.25;;;11.98;nan
7309;BME280;3695;53.330;9.876;2024-02-21T05:50:09;100595.19;;;11.94;nan
7309;BME280;3695;53.330;9.876;2024-02-21T05:52:36;100602.28;;;12.00;nan
7309;BME280;3695;53.330;9.876;2024-02-21T05:55:03;100594.56;;;12.12;nan
7309;BME280;3695;53.330;9.876;2024-02-21T05:57:29;100598.09;;;12.12;nan
7309;BME280;3695;53.330;9.876;2024-02-21T05:59:56;100595.53;;;12.15;nan
7309;BME280;3695;53.330;9.876;2024-02-21T06:02:23;100591.09;;;12.11;nan
7309;BME280;3695;53.330;9.876;2024-02-21T06:04:49;100599.00;;;12.11;nan
7309;BME280;3695;53.330;9.876;2024-02-21T06:07:17;100594.41;;;12.01;nan
7309;BME280;3695;53.330;9.876;2024-02-21T06:09:44;100594.59;;;12.13;nan
7309;BME280;3695;53.330;9.876;2024-02-21T06:12:10;100591.44;;;12.37;nan
7309;BME280;3695;53.330;9.876;2024-02-21T06:14:37;100595.66;;;12.26;nan
7309;BME280;3695;53.330;9.876;2024-02-21T06:17:03;100600.72;;;12.11;nan
7309;BME280;3695;53.330;9.876;2024-02-21T06:19:30;100604.19;;;12.08;nan
7309;BME280;3695;53.330;9.876;2024-02-21T06:21:56;100602.28;;;11.98;nan
7309;BME280;3695;53.330;9.876;2024-02-21T06:24:24;100602.66;;;12.24;nan
7309;BME280;3695;53.330;9.876;2024-02-21T06:26:51;100605.03;;;12.04;nan
7309;BME280;3695;53.330;9.876;2024-02-21T06:29:17;100611.81;;;11.90;nan
7309;BME280;3695;53.330;9.876;2024-02-21T06:31:44;100604.91;;;12.00;nan
7309;BME280;3695;53.330;9.876;2024-02-21T06:34:10;100608.53;;;12.06;nan
7309;BME280;3695;53.330;9.876;2024-02-21T06:36:37;100603.41;;;12.14;nan
7309;BME280;3695;53.330;9.876;2024-02-21T06:39:03;100598.06;;;12.09;nan
7309;BME280;3695;53.330;9.876;2024-02-21T06:41:34;100599.09;;;12.20;nan
7309;BME280;3695;53.330;9.876;2024-02-21T06:44:00;100611.03;;;11.96;nan
7309;BME280;3695;53.330;9.876;2024-02-21T06:46:27;100599.78;;;12.07;nan
7309;BME280;3695;53.330;9.876;2024-02-21T06:48:55;100602.56;;;12.16;nan
7309;BME280;3695;53.330;9.876;2024-02-21T06:51:22;100600.91;;;12.24;nan
7309;BME280;3695;53.330;9.876;2024-02-21T06:53:49;100606.03;;;12.14;nan
7309;BME280;3695;53.330;9.876;2024-02-21T06:56:16;100597.22;;;12.12;nan
7309;BME280;3695;53.330;9.876;2024-02-21T06:58:44;100598.16;;;12.15;nan
7309;BME280;3695;53.330;9.876;2024-02-21T07:01:10;100603.59;;;12.28;nan
7309;BME280;3695;53.330;9.876;2024-02-21T07:03:37;100600.97;;;12.28;nan
7309;BME280;3695;53.330;9.876;2024-02-21T07:06:04;100603.41;;;12.14;nan
7309;BME280;3695;53.330;9.876;2024-02-21T07:08:31;100605.13;;;12.12;nan
7309;BME280;3695;53.330;9.876;2024-02-21T07:10:57;100604.25;;;12.13;nan
7309;BME280;3695;53.330;9.876;2024-02-21T07:13:24;100605.03;;;12.04;nan
7309;BME280;3695;53.330;9.876;2024-02-21T07:15:51;100606.81;;;12.08;nan
7309;BME280;3695;53.330;9.876;2024-02-21T07:18:18;100607.50;;;11.95;nan
7309;BME280;3695;53.330;9.876;2024-02-21T07:20:45;100608.03;;;12.29;nan
7309;BME280;3695;53.330;9.876;2024-02-21T07:23:11;100614.84;;;12.16;nan
7309;BME280;3695;53.330;9.876;2024-02-21T07:25:38;100628.91;;;12.18;nan
7309;BME280;3695;53.330;9.876;2024-02-21T07:28:05;100615.75;;;12.18;nan
7309;BME280;3695;53.330;9.876;2024-02-21T07:30:33;100623.72;;;12.21;nan
7309;BME280;3695;53.330;9.876;2024-02-21T07:33:01;100625.53;;;12.27;nan
7309;BME280;3695;53.330;9.876;2024-02-21T07:35:27;100630.00;;;12.31;nan
7309;BME280;3695;53.330;9.876;2024-02-21T07:37:54;100612.16;;;12.13;nan
7309;BME280;3695;53.330;9.876;2024-02-21T07:40:20;100612.28;;;12.20;nan
7309;BME280;3695;53.330;9.876;2024-02-21T07:42:47;100608.91;;;12.31;nan
7309;BME280;3695;53.330;9.876;2024-02-21T07:45:14;100603.53;;;12.21;nan
7309;BME280;3695;53.330;9.876;2024-02-21T07:47:40;100611.34;;;12.15;nan
7309;BME280;3695;53.330;9.876;2024-02-21T07:50:09;100609.75;;;12.27;nan
7309;BME280;3695;53.330;9.876;2024-02-21T07:52:36;100607.16;;;12.31;nan
7309;BME280;3695;53.330;9.876;2024-02-21T07:55:03;100603.44;;;12.15;nan
7309;BME280;3695;53.330;9.876;2024-02-21T07:57:30;100607.03;;;12.22;nan
7309;BME280;3695;53.330;9.876;2024-02-21T07:59:56;100603.88;;;12.49;nan
7309;BME280;3695;53.330;9.876;2024-02-21T08:02:23;100605.53;;;12.39;nan
7309;BME280;3695;53.330;9.876;2024-02-21T08:04:49;100600.94;;;12.26;nan
7309;BME280;3695;53.330;9.876;2024-02-21T08:07:17;100600.22;;;12.38;nan
7309;BME280;3695;53.330;9.876;2024-02-21T08:09:44;100600.97;;;12.28;nan
7309;BME280;3695;53.330;9.876;2024-02-21T08:12:10;100593.88;;;12.22;nan
7309;BME280;3695;53.330;9.876;2024-02-21T08:14:37;100598.66;;;12.50;nan
7309;BME280;3695;53.330;9.876;2024-02-21T08:17:03;100596.72;;;12.39;nan
7309;BME280;3695;53.330;9.876;2024-02-21T08:19:30;100583.34;;;12.25;nan
7309;BME280;3695;53.330;9.876;2024-02-21T08:21:56;100593.22;;;12.38;nan
7309;BME280;3695;53.330;9.876;2024-02-21T08:24:24;100584.31;;;12.29;nan
7309;BME280;3695;53.330;9.876;2024-02-21T08:26:51;100592.38;;;12.41;nan
7309;BME280;3695;53.330;9.876;2024-02-21T08:29:17;100584.31;;;12.30;nan
7309;BME280;3695;53.330;9.876;2024-02-21T08:31:44;100589.72;;;12.39;nan
7309;BME280;3695;53.330;9.876;2024-02-21T08:34:10;100577.53;;;12.49;nan
7309;BME280;3695;53.330;9.876;2024-02-21T08:36:38;100577.44;;;12.40;nan
7309;BME280;3695;53.330;9.876;2024-02-21T08:39:05;100584.63;;;12.54;nan
7309;BME280;3695;53.330;9.876;2024-02-21T08:41:33;100583.84;;;12.61;nan
7309;BME280;3695;53.330;9.876;2024-02-21T08:44:00;100581.19;;;11.97;nan
7309;BME280;3695;53.330;9.876;2024-02-21T08:46:27;100579.75;;;12.17;nan
7309;BME280;3695;53.330;9.876;2024-02-21T08:48:54;100587.69;;;12.20;nan
7309;BME280;3695;53.330;9.876;2024-02-21T08:51:20;100583.53;;;12.37;nan
7309;BME280;3695;53.330;9.876;2024-02-21T08:53:48;100587.88;;;12.34;nan
7309;BME280;3695;53.330;9.876;2024-02-21T08:56:14;100589.75;;;12.41;nan
7309;BME280;3695;53.330;9.876;2024-02-21T08:58:42;100578.56;;;12.61;nan
7309;BME280;3695;53.330;9.876;2024-02-21T09:01:08;100574.00;;;12.48;nan
7309;BME280;3695;53.330;9.876;2024-02-21T09:03:36;100573.19;;;12.51;nan
7309;BME280;3695;53.330;9.876;2024-02-21T09:06:04;100569.63;;;12.49;nan
7309;BME280;3695;53.330;9.876;2024-02-21T09:08:30;100574.00;;;12.47;nan
7309;BME280;3695;53.330;9.876;2024-02-21T09:10:57;100571.38;;;12.48;nan
7309;BME280;3695;53.330;9.876;2024-02-21T09:13:23;100566.03;;;12.44;nan
7309;BME280;3695;53.330;9.876;2024-02-21T09:15:51;100578.34;;;12.43;nan
7309;BME280;3695;53.330;9.876;2024-02-21T09:18:18;100582.88;;;12.55;nan
7309;BME280;3695;53.330;9.876;2024-02-21T09:20:45;100586.44;;;12.57;nan
7309;BME280;3695;53.330;9.876;2024-02-21T09:23:13;100579.28;;;12.48;nan
7309;BME280;3695;53.330;9.876;2024-02-21T09:25:39;100574.97;;;12.53;nan
7309;BME280;3695;53.330;9.876;2024-02-21T09:28:06;100572.25;;;12.46;nan
7309;BME280;3695;53.330;9.876;2024-02-21T09:30:33;100575.81;;;12.51;nan
7309;BME280;3695;53.330;9.876;2024-02-21T09:33:01;100566.34;;;12.65;nan
7309;BME280;3695;53.330;9.876;2024-02-21T09:35:27;100564.75;;;12.78;nan
7309;BME280;3695;53.330;9.876;2024-02-21T09:37:54;100549.47;;;12.54;nan
7309;BME280;3695;53.330;9.876;2024-02-21T09:40:21;100558.00;;;12.33;nan
7309;BME280;3695;53.330;9.876;2024-02-21T09:42:48;100552.94;;;12.50;nan
7309;BME280;3695;53.330;9.876;2024-02-21T09:45:19;100550.25;;;12.45;nan
7309;BME280;3695;53.330;9.876;2024-02-21T09:47:55;100545.03;;;12.47;nan
7309;BME280;3695;53.330;9.876;2024-02-21T09:50:26;100548.47;;;12.41;nan
7309;BME280;3695;53.330;9.876;2024-02-21T09:52:54;100543.94;;;12.33;nan
7309;BME280;3695;53.330;9.876;2024-02-21T09:55:21;100554.00;;;12.64;nan
7309;BME280;3695;53.330;9.876;2024-02-21T09:57:49;100554.75;;;12.54;nan
7309;BME280;3695;53.330;9.876;2024-02-21T10:00:17;100541.72;;;12.66;nan
7309;BME280;3695;53.330;9.876;2024-02-21T10:02:47;100542.63;;;12.68;nan
7309;BME280;3695;53.330;9.876;2024-02-21T10:05:13;100534.53;;;12.51;nan
7309;BME280;3695;53.330;9.876;2024-02-21T10:07:41;100538.28;;;12.73;nan
7309;BME280;3695;53.330;9.876;2024-02-21T10:10:08;100537.44;;;12.74;nan
7309;BME280;3695;53.330;9.876;2024-02-21T10:12:35;100532.09;;;12.68;nan
7309;BME280;3695;53.330;9.876;2024-02-21T10:15:02;100527.69;;;12.66;nan
7309;BME280;3695;53.330;9.876;2024-02-21T10:17:29;100524.25;;;12.76;nan
7309;BME280;3695;53.330;9.876;2024-02-21T10:19:55;100535.78;;;12.85;nan
7309;BME280;3695;53.330;9.876;2024-02-21T10:22:22;100520.91;;;12.89;nan
7309;BME280;3695;53.330;9.876;2024-02-21T10:24:52;100532.97;;;12.69;nan
7309;BME280;3695;53.330;9.876;2024-02-21T10:27:23;100527.59;;;12.61;nan
7309;BME280;3695;53.330;9.876;2024-02-21T10:29:50;100527.75;;;12.75;nan
7309;BME280;3695;53.330;9.876;2024-02-21T10:32:17;100521.81;;;12.92;nan
7309;BME280;3695;53.330;9.876;2024-02-21T10:34:43;100516.53;;;12.92;nan
7309;BME280;3695;53.330;9.876;2024-02-21T10:37:11;100527.84;;;12.82;nan
7309;BME280;3695;53.330;9.876;2024-02-21T10:39:39;100519.75;;;12.67;nan
7309;BME280;3695;53.330;9.876;2024-02-21T10:42:07;100509.41;;;12.84;nan
7309;BME280;3695;53.330;9.876;2024-02-21T10:44:38;100507.69;;;12.87;nan
7309;BME280;3695;53.330;9.876;2024-02-21T10:47:07;100510.38;;;12.92;nan
7309;BME280;3695;53.330;9.876;2024-02-21T10:49:38;100501.41;;;12.75;nan
7309;BME280;3695;53.330;9.876;2024-02-21T10:52:09;100497.78;;;12.67;nan
7309;BME280;3695;53.330;9.876;2024-02-21T10:54:44;100503.84;;;12.58;nan
7309;BME280;3695;53.330;9.876;2024-02-21T10:57:13;100500.78;;;13.00;nan
7309;BME280;3695;53.330;9.876;2024-02-21T10:59:40;100497.00;;;12.75;nan
7309;BME280;3695;53.330;9.876;2024-02-21T11:02:07;100504.94;;;12.77;nan
7309;BME280;3695;53.330;9.876;2024-02-21T11:04:34;100497.22;;;12.96;nan
7309;BME280;3695;53.330;9.876;2024-02-21T11:07:03;100503.25;;;12.83;nan
7309;BME280;3695;53.330;9.876;2024-02-21T11:09:30;100503.25;;;12.82;nan
7309;BME280;3695;53.330;9.876;2024-02-21T11:11:58;100500.56;;;12.79;nan
7309;BME280;3695;53.330;9.876;2024-02-21T11:14:27;100494.25;;;12.64;nan
7309;BME280;3695;53.330;9.876;2024-02-21T11:16:54;100497.88;;;12.74;nan
7309;BME280;3695;53.330;9.876;2024-02-21T11:19:24;100490.56;;;12.50;nan
7309;BME280;3695;53.330;9.876;2024-02-21T11:21:52;100491.75;;;12.75;nan
7309;BME280;3695;53.330;9.876;2024-02-21T11:24:29;100485.34;;;12.53;nan
7309;BME280;3695;53.330;9.876;2024-02-21T11:26:56;100485.38;;;12.56;nan
7309;BME280;3695;53.330;9.876;2024-02-21T11:29:23;100474.13;;;12.71;nan
7309;BME280;3695;53.330;9.876;2024-02-21T11:31:52;100473.25;;;12.71;nan
7309;BME280;3695;53.330;9.876;2024-02-21T11:34:19;100461.69;;;12.61;nan
7309;BME280;3695;53.330;9.876;2024-02-21T11:36:46;100473.22;;;12.69;nan
7309;BME280;3695;53.330;9.876;2024-02-21T11:39:18;100468.66;;;12.54;nan
7309;BME280;3695;53.330;9.876;2024-02-21T11:41:46;100458.06;;;12.50;nan
7309;BME280;3695;53.330;9.876;2024-02-21T11:44:12;100456.16;;;12.38;nan
7309;BME280;3695;53.330;9.876;2024-02-21T11:46:39;100455.56;;;12.62;nan
7309;BME280;3695;53.330;9.876;2024-02-21T11:49:07;100449.38;;;12.60;nan
7309;BME280;3695;53.330;9.876;2024-02-21T11:51:34;100452.13;;;12.69;nan
7309;BME280;3695;53.330;9.876;2024-02-21T11:54:00;100438.53;;;12.33;nan
7309;BME280;3695;53.330;9.876;2024-02-21T11:56:27;100436.13;;;12.54;nan
7309;BME280;3695;53.330;9.876;2024-02-21T11:58:54;100428.34;;;12.63;nan
7309;BME280;3695;53.330;9.876;2024-02-21T12:01:20;100425.66;;;12.58;nan
7309;BME280;3695;53.330;9.876;2024-02-21T12:03:48;100427.47;;;12.67;nan
7309;BME280;3695;53.330;9.876;2024-02-21T12:06:17;100418.75;;;12.73;nan
7309;BME280;3695;53.330;9.876;2024-02-21T12:08:46;100419.84;;;12.94;nan
7309;BME280;3695;53.330;9.876;2024-02-21T12:11:19;100416.41;;;13.01;nan
7309;BME280;3695;53.330;9.876;2024-02-21T12:13:46;100413.75;;;13.00;nan
7309;BME280;3695;53.330;9.876;2024-02-21T12:16:15;100411.78;;;12.78;nan
7309;BME280;3695;53.330;9.876;2024-02-21T12:18:41;100413.63;;;12.88;nan
7309;BME280;3695;53.330;9.876;2024-02-21T12:21:09;100404.88;;;12.92;nan
7309;BME280;3695;53.330;9.876;2024-02-21T12:23:39;100401.47;;;13.05;nan
7309;BME280;3695;53.330;9.876;2024-02-21T12:26:06;100394.38;;;12.98;nan
7309;BME280;3695;53.330;9.876;2024-02-21T12:28:33;100396.31;;;13.20;nan
7309;BME280;3695;53.330;9.876;2024-02-21T12:30:59;100399.00;;;13.23;nan
7309;BME280;3695;53.330;9.876;2024-02-21T12:33:26;100392.94;;;13.36;nan
7309;BME280;3695;53.330;9.876;2024-02-21T12:35:53;100386.88;;;13.53;nan
7309;BME280;3695;53.330;9.876;2024-02-21T12:38:20;100385.03;;;13.38;nan
7309;BME280;3695;53.330;9.876;2024-02-21T12:40:48;100385.19;;;13.65;nan
7309;BME280;3695;53.330;9.876;2024-02-21T12:43:14;100379.75;;;13.39;nan
7309;BME280;3695;53.330;9.876;2024-02-21T12:45:41;100369.09;;;13.23;nan
7309;BME280;3695;53.330;9.876;2024-02-21T12:48:07;100366.47;;;13.26;nan
7309;BME280;3695;53.330;9.876;2024-02-21T12:50:34;100367.25;;;13.14;nan
7309;BME280;3695;53.330;9.876;2024-02-21T12:53:01;100359.59;;;13.52;nan
7309;BME280;3695;53.330;9.876;2024-02-21T12:55:28;100354.38;;;13.69;nan
7309;BME280;3695;53.330;9.876;2024-02-21T12:57:56;100354.31;;;13.57;nan
7309;BME280;3695;53.330;9.876;2024-02-21T13:00:22;100344.53;;;13.36;nan
7309;BME280;3695;53.330;9.876;2024-02-21T13:02:52;100349.03;;;13.49;nan
7309;BME280;3695;53.330;9.876;2024-02-21T13:05:19;100346.41;;;13.54;nan
7309;BME280;3695;53.330;9.876;2024-02-21T13:07:46;100332.31;;;13.50;nan
7309;BME280;3695;53.330;9.876;2024-02-21T13:10:14;100336.69;;;13.51;nan
7309;BME280;3695;53.330;9.876;2024-02-21T13:12:40;100324.28;;;13.35;nan
7309;BME280;3695;53.330;9.876;2024-02-21T13:15:09;100332.13;;;13.23;nan
7309;BME280;3695;53.330;9.876;2024-02-21T13:17:37;100319.91;;;13.40;nan
7309;BME280;3695;53.330;9.876;2024-02-21T13:20:05;100329.69;;;13.59;nan
7309;BME280;3695;53.330;9.876;2024-02-21T13:22:33;100320.06;;;13.67;nan
7309;BME280;3695;53.330;9.876;2024-02-21T13:25:00;100306.75;;;13.48;nan
7309;BME280;3695;53.330;9.876;2024-02-21T13:27:26;100307.63;;;13.45;nan
7309;BME280;3695;53.330;9.876;2024-02-21T13:29:53;100302.38;;;13.51;nan
7309;BME280;3695;53.330;9.876;2024-02-21T13:32:21;100287.34;;;13.39;nan